createdAt,value
2017-10-06T00:00:35.153Z,7.80
2017-10-06T00:03:03.664Z,7.80
2017-10-06T00:05:32.169Z,7.80
2017-10-06T00:08:00.701Z,7.80
2017-10-06T00:10:29.202Z,7.80
2017-10-06T00:12:58.474Z,7.80
2017-10-06T00:15:26.992Z,7.70
2017-10-06T00:17:55.490Z,7.80
2017-10-06T00:20:24.070Z,7.80
2017-10-06T00:22:52.588Z,7.70
2017-10-06T00:25:21.225Z,7.70
2017-10-06T00:27:50.504Z,7.70
2017-10-06T00:30:19.796Z,7.70
2017-10-06T00:32:48.322Z,7.60
2017-10-06T00:35:16.843Z,7.60
2017-10-06T00:37:45.365Z,7.60
2017-10-06T00:40:14.652Z,7.50
2017-10-06T00:42:43.196Z,7.50
2017-10-06T00:45:11.720Z,7.50
2017-10-06T00:47:40.245Z,7.50
2017-10-06T00:50:08.797Z,7.50
2017-10-06T00:52:37.278Z,7.40
2017-10-06T00:55:05.438Z,7.40
2017-10-06T00:57:33.373Z,7.40
2017-10-06T01:00:01.176Z,7.40
2017-10-06T01:02:29.691Z,7.60
2017-10-06T01:04:59.105Z,7.60
2017-10-06T01:07:27.606Z,7.60
2017-10-06T01:09:56.114Z,7.60
2017-10-06T01:12:24.989Z,7.60
2017-10-06T01:14:53.505Z,7.60
2017-10-06T01:17:22.005Z,7.60
2017-10-06T01:19:50.165Z,7.60
2017-10-06T01:22:17.974Z,7.50
2017-10-06T01:24:45.813Z,7.40
2017-10-06T01:27:14.769Z,7.40
2017-10-06T01:29:44.949Z,7.30
2017-10-06T01:32:13.509Z,7.30
2017-10-06T01:34:42.011Z,7.20
2017-10-06T01:37:11.086Z,7.20
2017-10-06T01:39:39.605Z,7.20
2017-10-06T01:42:07.735Z,7.20
2017-10-06T01:44:36.241Z,7.10
2017-10-06T01:47:05.173Z,7.00
2017-10-06T01:49:32.953Z,7.00
2017-10-06T01:52:01.480Z,6.90
2017-10-06T01:54:30.798Z,7.00
2017-10-06T01:57:00.061Z,7.00
2017-10-06T01:59:28.578Z,7.00
2017-10-06T02:01:57.289Z,7.00
2017-10-06T02:04:25.165Z,7.00
2017-10-06T02:06:53.669Z,7.00
2017-10-06T02:09:22.185Z,7.00
2017-10-06T02:11:51.496Z,7.00
2017-10-06T02:14:20.774Z,7.00
2017-10-06T02:16:49.283Z,6.90
2017-10-06T02:19:18.566Z,6.90
2017-10-06T02:21:46.362Z,6.80
2017-10-06T02:24:14.864Z,6.80
2017-10-06T02:26:43.368Z,6.70
2017-10-06T02:29:11.529Z,6.70
2017-10-06T02:31:39.846Z,6.70
2017-10-06T02:34:08.363Z,6.60
2017-10-06T02:36:37.623Z,6.60
2017-10-06T02:39:05.785Z,6.60
2017-10-06T02:41:35.077Z,6.50
2017-10-06T02:44:03.589Z,6.50
2017-10-06T02:46:32.121Z,6.50
2017-10-06T02:49:00.694Z,6.40
2017-10-06T02:51:29.245Z,6.40
2017-10-06T02:53:57.746Z,6.40
2017-10-06T02:56:27.021Z,6.30
2017-10-06T02:58:55.513Z,6.20
2017-10-06T03:01:24.016Z,6.30
2017-10-06T03:03:53.291Z,6.10
2017-10-06T03:06:21.810Z,6.10
2017-10-06T03:08:50.329Z,6.10
2017-10-06T03:11:18.837Z,6.10
2017-10-06T03:13:47.533Z,6.00
2017-10-06T03:16:16.027Z,6.00
2017-10-06T03:18:45.309Z,6.00
2017-10-06T03:21:13.817Z,5.90
2017-10-06T03:23:43.093Z,6.00
2017-10-06T03:26:11.624Z,6.00
2017-10-06T03:28:40.153Z,6.00
2017-10-06T03:31:08.786Z,5.90
2017-10-06T03:33:37.321Z,5.90
2017-10-06T03:36:05.823Z,5.90
2017-10-06T03:38:34.333Z,5.90
2017-10-06T03:41:03.610Z,5.80
2017-10-06T03:43:32.125Z,5.80
2017-10-06T03:46:00.617Z,5.80
2017-10-06T03:48:29.136Z,5.90
2017-10-06T03:50:57.643Z,5.90
2017-10-06T03:53:26.912Z,5.80
2017-10-06T03:55:55.426Z,5.80
2017-10-06T03:58:23.917Z,5.80
2017-10-06T04:00:53.206Z,5.70
2017-10-06T04:03:21.719Z,5.70
2017-10-06T04:05:50.249Z,5.70
2017-10-06T04:08:18.825Z,5.80
2017-10-06T04:10:47.365Z,5.80
2017-10-06T04:13:16.625Z,5.90
2017-10-06T04:15:45.125Z,6.00
2017-10-06T04:18:13.637Z,6.10
2017-10-06T04:20:42.935Z,6.10
2017-10-06T04:23:12.256Z,6.10
2017-10-06T04:25:40.769Z,6.10
2017-10-06T04:28:09.293Z,6.20
2017-10-06T04:30:38.553Z,6.20
2017-10-06T04:33:07.069Z,6.20
2017-10-06T04:35:36.361Z,6.30
2017-10-06T04:38:04.853Z,6.30
2017-10-06T04:40:33.364Z,6.30
2017-10-06T04:43:01.890Z,6.30
2017-10-06T04:45:30.393Z,6.40
2017-10-06T04:47:58.906Z,6.40
2017-10-06T04:50:28.204Z,6.50
2017-10-06T04:52:57.489Z,6.50
2017-10-06T04:55:25.985Z,6.50
2017-10-06T04:57:54.564Z,6.50
2017-10-06T05:00:23.149Z,6.50
2017-10-06T05:02:52.437Z,6.50
2017-10-06T05:05:20.928Z,6.50
2017-10-06T05:07:49.435Z,6.60
2017-10-06T05:10:17.919Z,6.60
2017-10-06T05:12:46.261Z,6.50
2017-10-06T05:15:14.586Z,6.60
2017-10-06T05:17:42.954Z,6.60
2017-10-06T05:20:11.677Z,6.60
2017-10-06T05:22:40.180Z,6.60
2017-10-06T05:25:08.706Z,6.70
2017-10-06T05:27:37.785Z,6.60
2017-10-06T05:30:07.074Z,6.70
2017-10-06T05:32:35.718Z,6.60
2017-10-06T05:35:04.265Z,6.60
2017-10-06T05:37:33.552Z,6.70
2017-10-06T05:40:02.852Z,6.70
2017-10-06T05:42:31.359Z,6.70
2017-10-06T05:45:00.646Z,6.70
2017-10-06T05:47:29.949Z,6.70
2017-10-06T05:49:59.226Z,6.70
2017-10-06T05:52:29.266Z,6.70
2017-10-06T05:54:58.558Z,6.80
2017-10-06T05:57:27.118Z,6.80
2017-10-06T05:59:55.282Z,6.60
2017-10-06T06:02:23.795Z,6.90
2017-10-06T06:04:52.369Z,6.90
2017-10-06T06:07:20.893Z,6.90
2017-10-06T06:09:50.057Z,6.90
2017-10-06T06:12:18.581Z,6.90
2017-10-06T06:14:47.083Z,7.00
2017-10-06T06:17:15.587Z,7.10
2017-10-06T06:19:44.109Z,7.10
2017-10-06T06:22:13.374Z,7.10
2017-10-06T06:24:41.888Z,7.10
2017-10-06T06:27:10.419Z,7.10
2017-10-06T06:29:38.933Z,7.10
2017-10-06T06:32:07.256Z,7.10
2017-10-06T06:34:36.543Z,7.20
2017-10-06T06:37:05.830Z,7.20
2017-10-06T06:39:34.341Z,7.10
2017-10-06T06:42:03.593Z,7.30
2017-10-06T06:44:32.105Z,7.20
2017-10-06T06:47:00.610Z,7.30
2017-10-06T06:49:29.516Z,7.40
2017-10-06T06:51:57.697Z,7.40
2017-10-06T06:54:25.857Z,7.50
2017-10-06T06:56:54.361Z,7.50
2017-10-06T06:59:22.828Z,7.60
2017-10-06T07:01:50.596Z,7.60
2017-10-06T07:04:19.117Z,7.70
2017-10-06T07:06:47.583Z,7.70
2017-10-06T07:09:16.056Z,7.70
2017-10-06T07:11:44.188Z,7.70
2017-10-06T07:14:13.461Z,7.80
2017-10-06T07:16:42.173Z,7.70
2017-10-06T07:19:10.684Z,7.60
2017-10-06T07:21:39.168Z,7.60
2017-10-06T07:24:07.659Z,7.60
2017-10-06T07:26:36.153Z,7.60
2017-10-06T07:29:05.748Z,7.70
2017-10-06T07:31:34.227Z,7.70
2017-10-06T07:34:02.681Z,7.90
2017-10-06T07:36:31.262Z,7.90
2017-10-06T07:38:59.743Z,7.90
2017-10-06T07:41:28.224Z,7.90
2017-10-06T07:43:56.700Z,8.00
2017-10-06T07:46:24.994Z,8.10
2017-10-06T07:48:54.244Z,8.30
2017-10-06T07:51:22.540Z,8.40
2017-10-06T07:53:50.992Z,8.40
2017-10-06T07:56:19.279Z,8.50
2017-10-06T07:58:47.744Z,8.50
2017-10-06T08:01:16.208Z,8.60
2017-10-06T08:03:45.448Z,8.70
2017-10-06T08:06:13.924Z,8.70
2017-10-06T08:08:42.396Z,8.90
2017-10-06T08:11:10.868Z,9.00
2017-10-06T08:13:39.322Z,8.90
2017-10-06T08:16:07.453Z,9.00
2017-10-06T08:18:35.559Z,9.00
2017-10-06T08:21:04.016Z,8.90
2017-10-06T08:23:32.505Z,9.00
2017-10-06T08:26:01.076Z,9.20
2017-10-06T08:28:29.547Z,9.10
2017-10-06T08:30:58.027Z,9.20
2017-10-06T08:33:26.500Z,9.40
2017-10-06T08:35:54.596Z,9.50
2017-10-06T08:38:23.272Z,9.60
2017-10-06T08:40:51.752Z,9.60
2017-10-06T08:43:20.225Z,9.70
2017-10-06T08:45:48.408Z,9.60
2017-10-06T08:48:16.870Z,9.60
2017-10-06T08:50:45.373Z,9.90
2017-10-06T08:53:13.856Z,9.80
2017-10-06T08:58:17.696Z,10.40
2017-10-06T09:00:46.240Z,10.30
2017-10-06T09:03:15.507Z,10.90
2017-10-06T09:05:43.983Z,10.80
2017-10-06T09:08:12.479Z,11.10
2017-10-06T09:10:47.752Z,11.20
2017-10-06T09:13:16.985Z,10.90
2017-10-06T09:15:45.873Z,10.80
2017-10-06T09:18:14.159Z,10.60
2017-10-06T09:20:42.644Z,10.70
2017-10-06T09:23:11.100Z,10.80
2017-10-06T09:25:39.398Z,10.80
2017-10-06T09:28:07.882Z,10.90
2017-10-06T09:30:36.362Z,10.90
2017-10-06T09:33:04.854Z,10.60
2017-10-06T09:35:33.330Z,10.30
2017-10-06T09:38:01.849Z,10.00
2017-10-06T09:40:30.333Z,9.90
2017-10-06T09:43:00.311Z,9.90
2017-10-06T09:45:28.804Z,9.90
2017-10-06T09:47:57.281Z,10.20
2017-10-06T09:50:25.759Z,10.50
2017-10-06T09:52:54.265Z,10.50
2017-10-06T09:55:22.760Z,10.50
2017-10-06T09:57:51.256Z,10.80
2017-10-06T10:00:20.485Z,10.90
2017-10-06T10:02:48.995Z,10.80
2017-10-06T10:05:17.487Z,10.80
2017-10-06T10:07:46.752Z,11.20
2017-10-06T10:10:15.245Z,11.20
2017-10-06T10:12:43.736Z,11.50
2017-10-06T10:15:12.417Z,11.40
2017-10-06T10:17:40.896Z,11.40
2017-10-06T10:20:09.352Z,11.50
2017-10-06T10:22:38.875Z,11.80
2017-10-06T10:25:07.356Z,11.70
2017-10-06T10:27:35.859Z,11.70
2017-10-06T10:30:04.332Z,11.90
2017-10-06T10:32:32.803Z,11.90
2017-10-06T10:35:01.290Z,11.40
2017-10-06T10:37:29.760Z,11.30
2017-10-06T10:39:59.040Z,11.30
2017-10-06T10:42:27.510Z,11.30
2017-10-06T10:44:55.996Z,11.40
2017-10-06T10:47:25.623Z,11.70
2017-10-06T10:49:54.559Z,11.80
2017-10-06T10:52:22.695Z,11.80
2017-10-06T10:54:51.616Z,12.00
2017-10-06T10:57:19.747Z,12.00
2017-10-06T10:59:47.872Z,12.10
2017-10-06T11:02:15.666Z,12.30
2017-10-06T11:04:44.129Z,12.30
2017-10-06T11:07:11.920Z,12.20
2017-10-06T11:09:40.371Z,12.00
2017-10-06T11:12:08.131Z,11.80
2017-10-06T11:14:36.591Z,11.70
2017-10-06T11:17:04.984Z,11.80
2017-10-06T11:19:33.132Z,11.80
2017-10-06T11:22:02.045Z,11.90
2017-10-06T11:24:29.825Z,11.80
2017-10-06T11:26:59.007Z,11.80
2017-10-06T11:29:26.810Z,11.70
2017-10-06T11:31:54.932Z,11.60
2017-10-06T11:34:23.472Z,11.80
2017-10-06T11:36:52.379Z,11.60
2017-10-06T11:39:20.777Z,11.50
2017-10-06T11:41:48.941Z,11.60
2017-10-06T11:44:17.347Z,11.60
2017-10-06T11:46:46.608Z,11.70
2017-10-06T11:49:16.001Z,11.70
2017-10-06T11:51:44.214Z,11.70
2017-10-06T11:54:12.355Z,11.80
2017-10-06T11:56:40.771Z,11.80
2017-10-06T11:59:08.596Z,11.60
2017-10-06T12:01:36.689Z,11.10
2017-10-06T12:04:05.108Z,11.10
2017-10-06T12:06:33.985Z,11.00
2017-10-06T12:09:02.888Z,10.80
2017-10-06T12:11:32.181Z,10.90
2017-10-06T12:14:01.406Z,10.80
2017-10-06T12:16:29.887Z,10.60
2017-10-06T12:18:58.399Z,10.60
2017-10-06T12:21:26.684Z,10.70
2017-10-06T12:23:54.604Z,11.30
2017-10-06T12:26:24.153Z,11.40
2017-10-06T12:28:52.424Z,11.50
2017-10-06T12:31:20.223Z,11.00
2017-10-06T12:33:48.604Z,11.00
2017-10-06T12:36:16.871Z,10.80
2017-10-06T12:38:45.172Z,10.70
2017-10-06T12:41:13.649Z,10.60
2017-10-06T12:43:42.556Z,10.20
2017-10-06T12:46:11.443Z,9.60
2017-10-06T12:48:40.335Z,9.20
2017-10-06T12:51:08.877Z,9.00
2017-10-06T12:53:36.986Z,8.90
2017-10-06T12:56:05.483Z,8.70
2017-10-06T12:58:34.715Z,8.70
2017-10-06T13:01:02.852Z,8.80
2017-10-06T13:03:32.089Z,9.00
2017-10-06T13:06:00.225Z,9.40
2017-10-06T13:08:29.480Z,9.60
2017-10-06T13:10:57.240Z,9.30
2017-10-06T13:13:25.364Z,9.30
2017-10-06T13:15:54.606Z,9.30
2017-10-06T13:18:23.100Z,9.20
2017-10-06T13:20:51.235Z,9.20
2017-10-06T13:23:20.497Z,9.10
2017-10-06T13:25:49.357Z,9.30
2017-10-06T13:28:17.838Z,9.80
2017-10-06T13:30:45.657Z,10.00
2017-10-06T13:33:14.125Z,10.10
2017-10-06T13:35:42.603Z,9.80
2017-10-06T13:38:11.089Z,10.10
2017-10-06T13:40:39.969Z,10.30
2017-10-06T13:43:09.346Z,10.30
2017-10-06T13:45:37.933Z,10.20
2017-10-06T13:48:06.515Z,10.30
2017-10-06T13:50:35.020Z,10.60
2017-10-06T13:53:04.268Z,10.70
2017-10-06T13:55:33.497Z,10.70
2017-10-06T13:58:02.007Z,10.60
2017-10-06T14:00:30.481Z,10.60
2017-10-06T14:02:58.972Z,10.60
2017-10-06T14:05:27.452Z,10.60
2017-10-06T14:07:55.911Z,10.30
2017-10-06T14:10:24.375Z,10.40
2017-10-06T14:12:52.863Z,10.80
2017-10-06T14:15:21.349Z,11.00
2017-10-06T14:17:49.944Z,11.10
2017-10-06T14:20:18.419Z,11.50
2017-10-06T14:22:46.898Z,11.60
2017-10-06T14:25:15.386Z,12.20
2017-10-06T14:27:43.855Z,12.40
2017-10-06T14:30:12.371Z,12.40
2017-10-06T14:32:41.284Z,12.20
2017-10-06T14:35:09.773Z,12.20
2017-10-06T14:37:39.753Z,11.20
2017-10-06T14:40:08.293Z,10.90
2017-10-06T14:42:37.530Z,10.60
2017-10-06T14:45:06.181Z,10.50
2017-10-06T14:47:35.441Z,10.50
2017-10-06T14:52:33.428Z,10.50
2017-10-06T14:55:01.924Z,10.50
2017-10-06T14:57:30.396Z,10.60
2017-10-06T14:59:59.006Z,10.20
2017-10-06T15:02:27.488Z,10.20
2017-10-06T15:04:55.992Z,10.20
2017-10-06T15:07:25.212Z,10.20
2017-10-06T15:09:53.734Z,10.10
2017-10-06T15:12:21.869Z,10.00
2017-10-06T15:14:50.342Z,10.00
2017-10-06T15:17:19.882Z,9.80
2017-10-06T15:19:48.471Z,9.70
2017-10-06T15:22:17.017Z,9.70
2017-10-06T15:24:45.318Z,9.60
2017-10-06T15:27:13.629Z,9.60
2017-10-06T15:29:42.101Z,9.50
2017-10-06T15:32:10.975Z,9.40
2017-10-06T15:34:39.872Z,9.30
2017-10-06T15:37:08.389Z,9.40
2017-10-06T15:39:36.857Z,9.30
2017-10-06T15:42:05.355Z,9.40
2017-10-06T15:44:33.883Z,9.40
2017-10-06T15:47:02.385Z,9.40
2017-10-06T15:49:30.869Z,9.40
2017-10-06T15:52:00.510Z,9.50
2017-10-06T15:54:29.072Z,9.50
2017-10-06T15:56:57.567Z,9.50
2017-10-06T15:59:26.062Z,9.50
2017-10-06T16:01:54.551Z,9.50
2017-10-06T16:04:23.104Z,9.40
2017-10-06T16:06:51.582Z,9.40
2017-10-06T16:09:20.928Z,9.30
2017-10-06T16:11:50.192Z,9.20
2017-10-06T16:14:19.425Z,9.10
2017-10-06T16:16:47.728Z,9.00
2017-10-06T16:19:16.967Z,9.00
2017-10-06T16:21:45.452Z,9.10
2017-10-06T16:24:13.919Z,9.10
2017-10-06T16:26:42.425Z,9.10
2017-10-06T16:29:10.886Z,9.10
2017-10-06T16:31:39.376Z,9.20
2017-10-06T16:34:07.863Z,9.20
2017-10-06T16:36:36.173Z,9.20
2017-10-06T16:39:04.740Z,9.20
2017-10-06T16:41:33.251Z,9.20
2017-10-06T16:44:02.512Z,9.20
2017-10-06T16:46:31.092Z,9.10
2017-10-06T16:48:59.592Z,9.10
2017-10-06T16:51:28.076Z,9.10
2017-10-06T16:53:56.556Z,9.10
2017-10-06T16:56:25.057Z,9.10
2017-10-06T16:58:53.528Z,9.00
2017-10-06T17:01:22.010Z,9.10
2017-10-06T17:03:50.526Z,9.10
2017-10-06T17:06:19.783Z,9.10
2017-10-06T17:08:48.273Z,9.00
2017-10-06T17:11:16.789Z,9.10
2017-10-06T17:13:46.053Z,9.10
2017-10-06T17:16:14.670Z,9.20
2017-10-06T17:18:43.917Z,9.20
2017-10-06T17:21:12.527Z,9.10
2017-10-06T17:23:41.002Z,9.20
2017-10-06T17:26:09.584Z,9.10
2017-10-06T17:28:38.091Z,9.10
2017-10-06T17:31:06.588Z,9.10
2017-10-06T17:33:35.836Z,9.00
2017-10-06T17:36:04.327Z,9.00
2017-10-06T17:38:32.814Z,9.10
2017-10-06T17:41:02.308Z,9.00
2017-10-06T17:43:30.777Z,9.00
2017-10-06T17:45:59.264Z,9.00
2017-10-06T17:48:27.773Z,9.00
2017-10-06T17:50:56.252Z,9.00
2017-10-06T17:53:24.829Z,9.10
2017-10-06T17:55:53.313Z,9.00
2017-10-06T17:58:21.796Z,9.10
2017-10-06T18:00:50.276Z,9.00
2017-10-06T18:03:18.805Z,9.00
2017-10-06T18:05:48.040Z,9.00
2017-10-06T18:08:16.340Z,8.90
2017-10-06T18:10:45.432Z,8.90
2017-10-06T18:13:13.907Z,8.90
2017-10-06T18:15:42.408Z,8.90
2017-10-06T18:18:10.906Z,8.80
2017-10-06T18:20:39.384Z,8.80
2017-10-06T18:23:07.884Z,8.80
2017-10-06T18:25:36.386Z,8.80
2017-10-06T18:28:05.624Z,8.80
2017-10-06T18:30:34.135Z,8.70
2017-10-06T18:33:02.616Z,8.70
2017-10-06T18:35:31.088Z,8.60
2017-10-06T18:37:59.589Z,8.60
2017-10-06T18:40:28.488Z,8.50
2017-10-06T18:42:56.725Z,8.50
2017-10-06T18:45:25.193Z,8.50
2017-10-06T18:47:54.471Z,8.50
2017-10-06T18:50:23.828Z,8.50
2017-10-06T18:52:52.399Z,8.50
2017-10-06T18:55:20.865Z,8.50
2017-10-06T18:57:49.361Z,8.50
2017-10-06T19:00:17.841Z,8.50
2017-10-06T19:02:46.367Z,8.50
2017-10-06T19:05:14.828Z,8.40
2017-10-06T19:07:43.300Z,8.30
2017-10-06T19:10:11.833Z,8.30
2017-10-06T19:12:41.071Z,8.30
2017-10-06T19:15:09.645Z,8.30
2017-10-06T19:17:38.131Z,8.30
2017-10-06T19:20:06.626Z,8.40
2017-10-06T19:22:35.112Z,8.40
2017-10-06T19:25:03.704Z,8.40
2017-10-06T19:27:32.213Z,8.40
2017-10-06T19:30:01.479Z,8.40
2017-10-06T19:32:29.988Z,8.40
2017-10-06T19:34:58.543Z,8.40
2017-10-06T19:37:27.158Z,8.40
2017-10-06T19:39:55.651Z,8.40
2017-10-06T19:42:23.948Z,8.40
2017-10-06T19:44:53.010Z,8.50
2017-10-06T19:47:21.328Z,8.50
2017-10-06T19:49:50.584Z,8.50
2017-10-06T19:52:19.104Z,8.50
2017-10-06T19:54:48.359Z,8.40
2017-10-06T19:57:17.631Z,8.50
2017-10-06T19:59:46.111Z,8.40
2017-10-06T20:02:14.608Z,8.50
2017-10-06T20:04:43.088Z,8.50
2017-10-06T20:07:11.593Z,8.50
2017-10-06T20:09:40.169Z,8.50
2017-10-06T20:12:08.667Z,8.60
2017-10-06T20:14:37.149Z,8.60
2017-10-06T20:17:05.654Z,8.70
2017-10-06T20:19:34.120Z,8.70
2017-10-06T20:22:02.817Z,8.70
2017-10-06T20:24:31.299Z,8.70
2017-10-06T20:26:59.812Z,8.70
2017-10-06T20:29:29.103Z,8.70
2017-10-06T20:31:58.452Z,8.60
2017-10-06T20:34:26.923Z,8.50
2017-10-06T20:36:55.524Z,8.60
2017-10-06T20:39:23.823Z,8.60
2017-10-06T20:41:52.135Z,8.60
2017-10-06T20:44:21.533Z,8.50
2017-10-06T20:46:50.811Z,8.60
2017-10-06T20:49:19.099Z,8.70
2017-10-06T20:51:47.588Z,8.60
2017-10-06T20:54:16.844Z,8.60
2017-10-06T20:56:45.373Z,8.60
2017-10-06T20:59:13.849Z,8.50
2017-10-06T21:01:43.129Z,8.60
2017-10-06T21:04:11.709Z,8.50
2017-10-06T21:06:40.200Z,8.50
2017-10-06T21:09:08.683Z,8.50
2017-10-06T21:11:37.183Z,8.40
2017-10-06T21:14:05.676Z,8.50
2017-10-06T21:16:34.173Z,8.40
2017-10-06T21:19:03.269Z,8.40
2017-10-06T21:21:32.526Z,8.50
2017-10-06T21:24:01.598Z,8.50
2017-10-06T21:26:30.127Z,8.40
2017-10-06T21:28:58.601Z,8.50
2017-10-06T21:31:27.105Z,8.50
2017-10-06T21:33:56.376Z,8.60
2017-10-06T21:36:24.863Z,8.60
2017-10-06T21:38:53.376Z,8.60
2017-10-06T21:41:22.610Z,8.70
2017-10-06T21:43:51.102Z,8.60
2017-10-06T21:46:19.694Z,8.70
2017-10-06T21:48:48.224Z,8.70
2017-10-06T21:51:17.460Z,8.70
2017-10-06T21:53:45.955Z,8.60
2017-10-06T21:56:14.492Z,8.70
2017-10-06T21:58:43.904Z,8.70
2017-10-06T22:01:13.140Z,8.70
2017-10-06T22:03:41.612Z,8.70
2017-10-06T22:06:10.110Z,8.70
2017-10-06T22:08:38.595Z,8.70
2017-10-06T22:11:07.080Z,8.70
2017-10-06T22:13:35.640Z,8.60
2017-10-06T22:16:04.117Z,8.50
2017-10-06T22:18:32.597Z,8.60
2017-10-06T22:21:01.095Z,8.40
2017-10-06T22:23:29.597Z,8.30
2017-10-06T22:25:58.094Z,8.20
2017-10-06T22:28:27.272Z,8.10
2017-10-06T22:30:55.739Z,8.00
2017-10-06T22:33:24.237Z,8.00
2017-10-06T22:35:52.731Z,8.00
2017-10-06T22:38:21.206Z,8.00
2017-10-06T22:40:49.685Z,7.90
2017-10-06T22:43:18.167Z,7.90
2017-10-06T22:45:46.650Z,7.80
2017-10-06T22:48:15.124Z,7.80
2017-10-06T22:50:43.615Z,7.70
2017-10-06T22:53:12.599Z,7.70
2017-10-06T22:55:41.200Z,7.60
2017-10-06T22:58:09.786Z,7.50
2017-10-06T23:00:38.255Z,7.50
2017-10-06T23:03:06.752Z,7.40
2017-10-06T23:05:35.212Z,7.40
2017-10-06T23:08:03.689Z,7.40
2017-10-06T23:10:32.698Z,7.30
2017-10-06T23:13:01.232Z,7.40
2017-10-06T23:15:30.124Z,7.40
2017-10-06T23:17:58.996Z,7.40
2017-10-06T23:20:27.859Z,7.40
2017-10-06T23:22:57.579Z,7.40
2017-10-06T23:25:26.838Z,7.30
2017-10-06T23:27:55.714Z,7.30
2017-10-06T23:30:24.951Z,7.30
2017-10-06T23:32:54.169Z,7.30
2017-10-06T23:35:23.054Z,7.30
2017-10-06T23:37:51.944Z,7.40
2017-10-06T23:40:20.807Z,7.40
2017-10-06T23:42:49.307Z,7.40
2017-10-06T23:45:18.160Z,7.50
2017-10-06T23:47:47.024Z,7.50
2017-10-06T23:50:15.904Z,7.60
2017-10-06T23:52:44.384Z,7.60
2017-10-06T23:55:12.845Z,7.60
2017-10-06T23:57:42.288Z,7.70
